Time,TemperatureF,DewpointF,PressureIn,WindDirection,WindDirectionDegrees,WindSpeedMPH,WindSpeedGustMPH,Humidity,HourlyPrecipIn,Conditions,Clouds,dailyrainin,SoftwareType,DateUTC
2013-06-24 00:02:00,73.0,71.0,30.18,ENE,71,0.0,0.0,95,0.00,,,0.00,,2013-06-24 04:02:00,
2013-06-24 00:12:00,73.0,71.0,30.18,ENE,71,0.0,0.0,95,0.00,,,0.00,,2013-06-24 04:12:00,
2013-06-24 00:22:00,73.0,71.0,30.18,ENE,71,0.0,0.0,95,0.00,,,0.00,,2013-06-24 04:22:00,
2013-06-24 00:33:00,73.0,72.0,30.18,ENE,71,0.0,0.0,96,0.00,,,0.00,,2013-06-24 04:33:00,
2013-06-24 00:43:00,73.0,72.0,30.17,ENE,71,0.0,0.0,96,0.00,,,0.00,,2013-06-24 04:43:00,
2013-06-24 00:52:00,73.0,72.0,30.17,ENE,71,0.0,0.0,96,0.00,,,0.00,,2013-06-24 04:52:00,
2013-06-24 01:02:00,72.0,71.0,30.17,ENE,71,0.0,0.0,96,0.00,,,0.00,,2013-06-24 05:02:00,
2013-06-24 01:12:00,72.0,71.0,30.17,ENE,71,0.0,0.0,96,0.00,,,0.00,,2013-06-24 05:12:00,
2013-06-24 01:22:00,72.0,71.0,30.18,ENE,71,0.0,0.0,96,0.00,,,0.00,,2013-06-24 05:22:00,
2013-06-24 01:36:00,72.0,71.0,30.18,ENE,71,0.0,0.0,96,0.00,,,0.00,,2013-06-24 05:36:00,
2013-06-24 01:46:00,72.0,71.0,30.18,ENE,71,0.0,0.0,96,0.00,,,0.00,,2013-06-24 05:46:00,
2013-06-24 01:53:00,72.0,71.0,30.18,ENE,71,0.0,0.0,96,0.00,,,0.00,,2013-06-24 05:53:00,
2013-06-24 02:08:00,72.0,71.0,30.18,ENE,71,0.0,0.0,96,0.00,,,0.00,,2013-06-24 06:08:00,
2013-06-24 02:14:00,72.0,71.0,30.18,ENE,71,0.0,0.0,96,0.00,,,0.00,,2013-06-24 06:14:00,
2013-06-24 02:24:00,71.0,70.0,30.18,ENE,71,0.0,0.0,96,0.00,,,0.00,,2013-06-24 06:24:00,
2013-06-24 02:37:00,71.0,70.0,30.18,ENE,71,0.0,0.0,96,0.00,,,0.00,,2013-06-24 06:37:00,
2013-06-24 02:45:00,71.0,70.0,30.19,ENE,71,0.0,0.0,96,0.00,,,0.00,,2013-06-24 06:45:00,
2013-06-24 02:53:00,71.0,70.0,30.18,ENE,71,0.0,0.0,97,0.00,,,0.00,,2013-06-24 06:53:00,
2013-06-24 03:05:00,71.0,70.0,30.19,ENE,71,0.0,0.0,97,0.00,,,0.00,,2013-06-24 07:05:00,
2013-06-24 03:14:00,71.0,70.0,30.18,ENE,71,0.0,0.0,97,0.00,,,0.00,,2013-06-24 07:14:00,
2013-06-24 03:37:00,71.0,70.0,30.18,ENE,71,0.0,0.0,97,0.00,,,0.00,,2013-06-24 07:37:00,
2013-06-24 03:54:00,71.0,70.0,30.19,ENE,71,0.0,0.0,97,0.00,,,0.00,,2013-06-24 07:54:00,
2013-06-24 04:04:00,71.0,70.0,30.19,ENE,71,0.0,0.0,97,0.00,,,0.00,,2013-06-24 08:04:00,
2013-06-24 04:14:00,71.0,70.0,30.20,ENE,71,0.0,0.0,97,0.00,,,0.00,,2013-06-24 08:14:00,
2013-06-24 04:35:00,72.0,71.0,30.19,ENE,71,0.0,0.0,97,0.00,,,0.00,,2013-06-24 08:35:00,
2013-06-24 04:46:00,72.0,71.0,30.19,ENE,71,0.0,0.0,97,0.00,,,0.00,,2013-06-24 08:46:00,
2013-06-24 05:06:00,71.0,70.0,30.19,ENE,71,0.0,0.0,97,0.00,,,0.00,,2013-06-24 09:06:00,
2013-06-24 05:15:00,71.0,70.0,30.19,ENE,71,0.0,0.0,97,0.00,,,0.00,,2013-06-24 09:15:00,
2013-06-24 05:26:00,71.0,70.0,30.19,ENE,71,0.0,0.0,97,0.00,,,0.00,,2013-06-24 09:26:00,
2013-06-24 05:47:00,72.0,71.0,30.19,ENE,71,0.0,0.0,97,0.00,,,0.00,,2013-06-24 09:47:00,
2013-06-24 05:56:00,72.0,71.0,30.19,ENE,71,0.0,0.0,97,0.00,,,0.00,,2013-06-24 09:56:00,
2013-06-24 06:05:00,72.0,71.0,30.19,ENE,71,0.0,0.0,97,0.00,,,0.00,,2013-06-24 10:05:00,
2013-06-24 06:14:00,72.0,71.0,30.19,ENE,71,0.0,0.0,97,0.00,,,0.00,,2013-06-24 10:14:00,
2013-06-24 06:24:00,71.0,70.0,30.19,ENE,71,0.0,0.0,97,0.00,,,0.00,,2013-06-24 10:24:00,
2013-06-24 06:37:00,71.0,70.0,30.19,ENE,71,0.0,0.0,97,0.00,,,0.00,,2013-06-24 10:37:00,
2013-06-24 06:49:00,71.0,70.0,30.19,ENE,71,0.0,0.0,97,0.00,,,0.00,,2013-06-24 10:49:00,
2013-06-24 06:54:00,71.0,70.0,30.19,ENE,71,0.0,0.0,97,0.00,,,0.00,,2013-06-24 10:54:00,
2013-06-24 07:03:00,71.0,70.0,30.20,ENE,71,0.0,0.0,97,0.00,,,0.00,,2013-06-24 11:03:00,
2013-06-24 07:29:00,71.0,70.0,30.20,ENE,71,0.0,0.0,97,0.00,,,0.00,,2013-06-24 11:29:00,
2013-06-24 07:34:00,72.0,71.0,30.20,ENE,71,0.0,0.0,98,0.00,,,0.00,,2013-06-24 11:34:00,
2013-06-24 07:56:00,73.0,72.0,30.21,ENE,71,0.0,0.0,97,0.00,,,0.00,,2013-06-24 11:56:00,
2013-06-24 08:16:00,74.0,73.0,30.21,ENE,71,0.0,0.0,97,0.00,,,0.00,,2013-06-24 12:16:00,
2013-06-24 08:36:00,76.0,75.0,30.22,SW,218,0.0,3.0,96,0.00,,,0.00,,2013-06-24 12:36:00,
2013-06-24 08:48:00,78.0,76.0,30.23,WSW,250,0.0,2.0,93,0.00,,,0.00,,2013-06-24 12:48:00,
2013-06-24 08:53:00,79.0,76.0,30.23,WSW,246,0.0,3.0,90,0.00,,,0.00,,2013-06-24 12:53:00,
2013-06-24 09:06:00,79.0,75.0,30.23,SW,228,1.0,3.0,89,0.00,,,0.00,,2013-06-24 13:06:00,
2013-06-24 09:24:00,80.0,76.0,30.23,West,281,1.0,5.0,88,0.00,,,0.00,,2013-06-24 13:24:00,
2013-06-24 09:44:00,82.0,77.0,30.23,SW,225,0.0,4.0,85,0.00,,,0.00,,2013-06-24 13:44:00,
2013-06-24 10:37:00,84.0,78.0,30.22,WNW,300,1.0,3.0,81,0.00,,,0.00,,2013-06-24 14:37:00,
2013-06-24 10:45:00,83.0,76.0,30.22,SW,226,1.0,3.0,79,0.00,,,0.00,,2013-06-24 14:45:00,
2013-06-24 10:56:00,84.0,75.0,30.22,SW,226,1.0,3.0,75,0.00,,,0.00,,2013-06-24 14:56:00,
2013-06-24 11:54:00,88.0,76.0,30.23,SW,231,1.0,2.0,68,0.00,,,0.00,,2013-06-24 15:54:00,
2013-06-24 13:35:00,90.0,76.0,30.21,NE,53,1.0,2.0,63,0.00,,,0.00,,2013-06-24 17:35:00,
2013-06-24 13:46:00,89.0,77.0,30.19,NW,323,0.0,1.0,68,0.00,,,0.00,,2013-06-24 17:46:00,
2013-06-24 14:46:00,88.0,77.0,30.17,NE,49,0.0,2.0,69,0.00,,,0.00,,2013-06-24 18:46:00,
2013-06-24 15:06:00,85.0,77.0,30.17,NE,49,0.0,1.0,78,0.00,,,0.00,,2013-06-24 19:06:00,
2013-06-24 15:37:00,83.0,75.0,30.16,SW,217,0.0,2.0,76,0.00,,,0.00,,2013-06-24 19:37:00,
2013-06-24 16:45:00,84.0,76.0,30.13,East,88,0.0,1.0,76,0.00,,,0.00,,2013-06-24 20:45:00,
2013-06-24 16:54:00,84.0,76.0,30.14,East,88,0.0,0.0,78,0.00,,,0.00,,2013-06-24 20:54:00,
2013-06-24 17:46:00,83.0,78.0,30.14,SSW,210,0.0,2.0,85,0.00,,,0.00,,2013-06-24 21:46:00,
2013-06-24 17:53:00,83.0,78.0,30.14,SSW,208,0.0,1.0,85,0.00,,,0.00,,2013-06-24 21:53:00,
2013-06-24 18:05:00,84.0,78.0,30.14,ENE,72,0.0,0.0,83,0.00,,,0.00,,2013-06-24 22:05:00,
2013-06-24 18:15:00,83.0,78.0,30.14,ENE,72,0.0,0.0,84,0.00,,,0.00,,2013-06-24 22:15:00,
2013-06-24 18:23:00,83.0,78.0,30.15,ENE,72,0.0,1.0,84,0.00,,,0.00,,2013-06-24 22:23:00,
2013-06-24 18:47:00,82.0,77.0,30.14,ENE,72,0.0,0.0,85,0.00,,,0.00,,2013-06-24 22:47:00,
2013-06-24 19:05:00,80.0,75.0,30.17,SW,223,1.0,4.0,84,0.00,,,0.00,,2013-06-24 23:05:00,
2013-06-24 19:14:00,77.0,72.0,30.17,SSE,168,0.0,4.0,86,0.00,,,0.00,,2013-06-24 23:14:00,
2013-06-24 19:27:00,76.0,72.0,30.17,SSW,211,0.0,4.0,86,0.00,,,0.00,,2013-06-24 23:27:00,
2013-06-24 19:34:00,75.0,72.0,30.17,ENE,58,1.0,2.0,89,0.00,,,0.00,,2013-06-24 23:34:00,
2013-06-24 19:45:00,74.0,71.0,30.16,ESE,121,0.0,1.0,91,0.02,,,0.02,,2013-06-24 23:45:00,
2013-06-24 19:53:00,74.0,72.0,30.16,SE,136,0.0,1.0,92,0.03,,,0.03,,2013-06-24 23:53:00,
2013-06-24 20:05:00,73.0,71.0,30.17,SW,214,1.0,2.0,94,0.04,,,0.04,,2013-06-25 00:05:00,
2013-06-24 20:12:00,73.0,71.0,30.17,WSW,238,0.0,1.0,95,0.06,,,0.06,,2013-06-25 00:12:00,
2013-06-24 20:24:00,73.0,71.0,30.17,WSW,237,0.0,1.0,95,0.06,,,0.06,,2013-06-25 00:24:00,
2013-06-24 20:34:00,73.0,71.0,30.17,WSW,237,0.0,0.0,95,0.07,,,0.07,,2013-06-25 00:34:00,
2013-06-24 20:54:00,73.0,71.0,30.17,WSW,238,0.0,1.0,95,0.04,,,0.07,,2013-06-25 00:54:00,
2013-06-24 21:04:00,73.0,72.0,30.17,WSW,238,0.0,1.0,96,0.03,,,0.07,,2013-06-25 01:04:00,
2013-06-24 21:16:00,73.0,72.0,30.17,WSW,238,0.0,0.0,96,0.03,,,0.07,,2013-06-25 01:16:00,
2013-06-24 22:56:00,71.0,70.0,30.16,NE,40,0.0,0.0,96,0.00,,,0.07,,2013-06-25 02:56:00,
2013-06-24 23:52:00,71.0,70.0,30.15,NE,40,0.0,0.0,96,0.00,,,0.07,,2013-06-25 03:52:00,